Time;durP1;ratioP1;P1;durP2;ratioP2;P2;SDS_P1;SDS_P2;PMS_P1;PMS_P2;Temp;Humidity;BMP_temperature;BMP_pressure;BME280_temperature;BME280_humidity;BME280_pressure;Samples;Min_cycle;Max_cycle;Signal;HPM_P1;HPM_P2
2023/09/06 00:01:09;;;;;;;3.50;1.95;;;19.90;98.20;;;;;;5092556;28;20024;-89
2023/09/06 00:03:37;;;;;;;4.95;1.73;;;19.80;98.30;;;;;;5094138;28;20027;-85
2023/09/06 00:06:04;;;;;;;2.03;1.52;;;19.80;98.30;;;;;;5093126;28;20024;-84
2023/09/06 00:08:34;;;;;;;4.25;1.95;;;19.80;98.20;;;;;;5092604;28;20025;-84
2023/09/06 00:11:04;;;;;;;4.85;2.10;;;19.80;98.30;;;;;;5094110;28;20032;-84
2023/09/06 00:13:33;;;;;;;4.25;2.03;;;19.70;98.30;;;;;;5093457;28;20020;-84
2023/09/06 00:16:03;;;;;;;3.55;1.60;;;19.70;98.20;;;;;;5093808;28;20020;-83
2023/09/06 00:18:29;;;;;;;2.55;1.83;;;19.80;98.30;;;;;;5075684;28;20084;-84
2023/09/06 00:20:57;;;;;;;3.17;1.83;;;19.70;98.30;;;;;;5093594;28;20060;-84
2023/09/06 00:23:24;;;;;;;3.42;1.95;;;19.70;98.30;;;;;;5093562;28;20031;-84
2023/09/06 00:25:50;;;;;;;3.85;1.95;;;19.70;98.40;;;;;;5093824;28;20020;-84
2023/09/06 00:28:19;;;;;;;4.75;1.92;;;19.60;98.40;;;;;;5075686;28;20059;-84
2023/09/06 00:30:45;;;;;;;3.38;1.88;;;19.60;98.50;;;;;;5075990;28;20024;-84
2023/09/06 00:33:11;;;;;;;6.35;2.03;;;19.60;98.60;;;;;;5075546;28;20024;-87
2023/09/06 00:35:38;;;;;;;4.53;1.90;;;19.60;98.50;;;;;;5075825;28;20159;-85
2023/09/06 00:38:07;;;;;;;3.15;1.98;;;19.50;98.60;;;;;;5092698;28;20028;-84
2023/09/06 00:40:36;;;;;;;3.40;2.05;;;19.50;98.50;;;;;;5092345;28;20061;-85
2023/09/06 00:43:03;;;;;;;3.00;1.65;;;19.50;98.60;;;;;;5093469;28;20024;-84
2023/09/06 00:45:36;;;;;;;4.03;1.95;;;19.50;98.70;;;;;;5079270;28;20035;-84
2023/09/06 00:48:04;;;;;;;4.20;1.80;;;19.50;98.80;;;;;;5079552;28;20019;-84
2023/09/06 00:50:29;;;;;;;4.20;1.90;;;19.40;98.70;;;;;;5095671;28;20076;-84
2023/09/06 00:52:57;;;;;;;3.10;2.08;;;19.40;98.70;;;;;;5096277;28;20104;-85
2023/09/06 00:55:23;;;;;;;3.28;2.00;;;19.40;98.80;;;;;;5078814;28;20038;-84
2023/09/06 00:57:49;;;;;;;3.60;2.00;;;19.40;98.80;;;;;;5096093;28;20020;-84
2023/09/06 01:00:17;;;;;;;3.38;2.10;;;19.30;99.10;;;;;;5095988;28;20025;-84
2023/09/06 01:02:43;;;;;;;2.97;2.20;;;19.20;99.30;;;;;;5096356;28;20389;-83
2023/09/06 01:05:09;;;;;;;5.80;2.40;;;19.10;99.20;;;;;;5097508;28;20031;-83
2023/09/06 01:07:37;;;;;;;4.25;2.30;;;19.20;99.30;;;;;;5096494;28;20481;-84
2023/09/06 01:10:03;;;;;;;3.63;1.92;;;19.10;99.20;;;;;;5096233;28;20032;-83
2023/09/06 01:12:29;;;;;;;5.82;2.08;;;19.20;99.20;;;;;;5078696;28;20016;-83
2023/09/06 01:14:55;;;;;;;3.38;1.85;;;19.10;99.10;;;;;;5095962;28;20089;-83
2023/09/06 01:17:22;;;;;;;2.70;1.92;;;19.10;99.50;;;;;;5096566;28;20028;-83
2023/09/06 01:19:53;;;;;;;4.18;2.38;;;19.10;99.20;;;;;;5097091;28;20028;-82
2023/09/06 01:22:31;;;;;;;3.65;2.20;;;19.10;99.20;;;;;;5078822;28;20028;-83
2023/09/06 01:24:57;;;;;;;5.25;2.28;;;19.10;99.20;;;;;;5078968;28;20069;-82
2023/09/06 01:27:23;;;;;;;4.88;2.00;;;19.00;99.40;;;;;;5096313;28;20457;-83
2023/09/06 01:29:49;;;;;;;3.38;2.08;;;19.00;99.30;;;;;;5095598;28;20028;-83
2023/09/06 01:32:15;;;;;;;4.57;2.15;;;19.00;99.50;;;;;;5096494;28;20031;-87
2023/09/06 01:34:40;;;;;;;3.13;2.05;;;19.00;99.50;;;;;;5096670;28;20041;-83
2023/09/06 01:37:06;;;;;;;2.78;1.90;;;18.90;99.60;;;;;;5095552;28;20052;-83
2023/09/06 01:39:31;;;;;;;4.97;2.10;;;18.90;99.60;;;;;;5095452;28;20040;-83
2023/09/06 01:41:57;;;;;;;4.20;2.25;;;18.90;99.60;;;;;;5095562;28;20024;-83
2023/09/06 01:44:22;;;;;;;3.78;2.35;;;18.90;99.70;;;;;;5095106;28;20032;-83
2023/09/06 01:46:48;;;;;;;3.28;2.15;;;18.80;99.70;;;;;;5095391;28;20059;-83
2023/09/06 01:49:13;;;;;;;3.40;2.15;;;18.80;99.80;;;;;;5095060;28;20072;-83
2023/09/06 01:51:39;;;;;;;3.08;2.20;;;18.70;99.80;;;;;;5095084;28;20184;-84
2023/09/06 01:54:07;;;;;;;5.35;2.22;;;18.70;99.80;;;;;;5095178;28;20028;-83
2023/09/06 01:56:33;;;;;;;3.55;2.30;;;18.70;99.90;;;;;;5078060;28;20024;-83
2023/09/06 01:58:58;;;;;;;3.42;2.70;;;18.70;99.90;;;;;;5095405;28;20021;-83
2023/09/06 02:01:24;;;;;;;3.47;2.10;;;18.60;99.90;;;;;;5095170;28;20020;-83
2023/09/06 02:03:49;;;;;;;3.10;1.88;;;18.50;99.90;;;;;;5096427;28;20027;-84
2023/09/06 02:06:15;;;;;;;4.28;2.42;;;18.40;99.90;;;;;;5094875;28;20503;-86
2023/09/06 02:08:40;;;;;;;5.18;2.20;;;18.40;99.90;;;;;;5094673;28;20027;-83
2023/09/06 02:11:06;;;;;;;4.20;2.45;;;18.40;99.90;;;;;;5095989;28;20091;-83
2023/09/06 02:13:32;;;;;;;3.90;2.00;;;18.30;99.90;;;;;;5094149;28;20039;-83
2023/09/06 02:16:02;;;;;;;8.40;2.35;;;18.30;99.90;;;;;;5094762;28;20082;-83
2023/09/06 02:18:27;;;;;;;4.30;2.20;;;18.30;99.90;;;;;;5094312;28;20020;-83
2023/09/06 02:20:55;;;;;;;3.03;2.10;;;18.30;99.90;;;;;;5094833;28;20422;-83
2023/09/06 02:23:21;;;;;;;4.38;2.30;;;18.30;99.90;;;;;;5095083;28;20055;-83
2023/09/06 02:25:47;;;;;;;4.85;2.38;;;18.30;99.90;;;;;;5095322;28;20062;-83
2023/09/06 02:28:14;;;;;;;4.82;2.40;;;18.30;99.90;;;;;;5094160;28;20036;-83
2023/09/06 02:30:41;;;;;;;3.88;2.30;;;18.30;99.90;;;;;;5094042;28;20028;-82
2023/09/06 02:33:14;;;;;;;3.00;2.20;;;18.30;99.90;;;;;;5094493;28;20054;-83
2023/09/06 02:35:41;;;;;;;3.47;2.40;;;18.40;99.90;;;;;;5076786;28;20134;-83
2023/09/06 02:38:08;;;;;;;3.97;2.33;;;18.30;99.90;;;;;;5077171;28;20024;-83
2023/09/06 02:40:34;;;;;;;6.07;2.60;;;18.30;99.90;;;;;;5076949;28;20036;-83
2023/09/06 02:43:01;;;;;;;5.65;2.28;;;18.20;99.90;;;;;;5094446;28;20027;-83
2023/09/06 02:45:36;;;;;;;4.72;2.05;;;18.10;99.90;;;;;;5094710;28;20100;-83
2023/09/06 02:48:06;;;;;;;5.38;2.50;;;18.00;99.90;;;;;;5093714;28;20032;-83
2023/09/06 02:50:34;;;;;;;4.57;2.50;;;17.90;99.90;;;;;;5076080;28;20603;-82
2023/09/06 02:53:01;;;;;;;3.92;2.08;;;17.90;99.90;;;;;;5077034;28;20055;-83
2023/09/06 02:55:27;;;;;;;4.05;2.60;;;17.90;99.90;;;;;;5093123;28;20381;-83
2023/09/06 02:57:56;;;;;;;3.85;2.20;;;18.00;99.90;;;;;;5077082;28;20027;-83
2023/09/06 03:00:25;;;;;;;3.47;2.45;;;18.00;99.90;;;;;;5093764;28;20031;-83
2023/09/06 03:02:55;;;;;;;3.83;2.20;;;18.10;99.90;;;;;;5093922;28;20020;-82
2023/09/06 03:05:21;;;;;;;3.83;2.17;;;18.10;99.90;;;;;;5094061;28;20032;-88
2023/09/06 03:07:48;;;;;;;4.15;2.30;;;18.10;99.90;;;;;;5076228;28;20020;-83
2023/09/06 03:10:19;;;;;;;3.97;2.30;;;18.10;99.90;;;;;;5076893;28;20460;-82
2023/09/06 03:12:58;;;;;;;3.45;2.28;;;18.10;99.90;;;;;;5076841;28;20457;-83
2023/09/06 03:15:28;;;;;;;5.32;2.38;;;18.10;99.90;;;;;;5094521;28;20036;-84
2023/09/06 03:17:54;;;;;;;3.92;2.28;;;18.10;99.90;;;;;;5076534;28;20413;-82
2023/09/06 03:20:33;;;;;;;3.85;2.60;;;18.00;99.90;;;;;;5093195;28;20027;-86
2023/09/06 03:23:16;;;;;;;3.88;2.67;;;18.00;99.90;;;;;;5076584;28;20024;-83
2023/09/06 03:25:54;;;;;;;5.10;2.28;;;17.90;99.90;;;;;;5075955;28;20081;-83
2023/09/06 03:28:20;;;;;;;3.88;2.17;;;17.80;99.90;;;;;;5076161;28;20024;-88
2023/09/06 03:30:46;;;;;;;4.60;2.50;;;17.70;99.90;;;;;;5076179;28;20031;-83
2023/09/06 03:33:11;;;;;;;5.28;2.17;;;17.70;99.90;;;;;;5076760;28;20024;-83
2023/09/06 03:35:37;;;;;;;3.70;2.28;;;17.60;99.90;;;;;;5093074;28;20185;-83
2023/09/06 03:38:03;;;;;;;4.78;2.33;;;17.50;99.90;;;;;;5093384;28;20033;-83
2023/09/06 03:40:36;;;;;;;3.78;2.35;;;17.50;99.90;;;;;;5076070;28;20483;-83
2023/09/06 03:43:14;;;;;;;3.35;2.40;;;17.50;99.90;;;;;;5076637;28;20028;-83
2023/09/06 03:45:50;;;;;;;3.97;2.63;;;17.50;99.90;;;;;;5094026;28;20024;-83
2023/09/06 03:48:19;;;;;;;5.00;2.50;;;17.50;99.90;;;;;;5093505;28;20031;-83
2023/09/06 03:50:45;;;;;;;3.95;2.55;;;17.50;99.90;;;;;;5053955;28;20056;-83
2023/09/06 03:53:13;;;;;;;4.45;2.38;;;17.60;99.90;;;;;;5054089;28;20080;-83
2023/09/06 03:55:41;;;;;;;4.65;2.63;;;17.60;99.90;;;;;;5052653;28;20543;-83
2023/09/06 03:58:07;;;;;;;6.30;3.05;;;17.50;99.90;;;;;;5052851;28;20124;-83
2023/09/06 04:00:33;;;;;;;4.20;2.60;;;17.50;99.90;;;;;;5052362;28;20053;-83
2023/09/06 04:02:59;;;;;;;4.32;2.85;;;17.50;99.90;;;;;;5053692;28;20048;-83
2023/09/06 04:05:26;;;;;;;4.57;2.53;;;17.50;99.90;;;;;;5053721;28;20029;-84
2023/09/06 04:07:59;;;;;;;5.63;2.85;;;17.50;99.90;;;;;;5052836;28;20060;-83
2023/09/06 04:10:35;;;;;;;6.47;2.95;;;17.50;99.90;;;;;;5052182;28;20386;-85
2023/09/06 04:13:00;;;;;;;5.80;2.95;;;17.50;99.90;;;;;;5052726;28;20029;-83
2023/09/06 04:15:26;;;;;;;7.85;2.97;;;17.50;99.90;;;;;;5051829;28;20037;-83
2023/09/06 04:17:57;;;;;;;3.30;2.40;;;17.50;99.90;;;;;;5056040;28;20029;-83
2023/09/06 04:20:36;;;;;;;5.63;2.70;;;17.50;99.90;;;;;;5056338;28;20075;-88
2023/09/06 04:23:05;;;;;;;5.60;2.75;;;17.50;99.90;;;;;;5056491;28;20041;-83
2023/09/06 04:25:33;;;;;;;4.65;2.80;;;17.50;99.90;;;;;;5056965;28;20116;-83
2023/09/06 04:28:00;;;;;;;4.07;2.72;;;17.40;99.90;;;;;;5056165;28;20110;-82
2023/09/06 04:30:32;;;;;;;3.55;2.45;;;17.40;99.90;;;;;;5057191;28;20118;-82
2023/09/06 04:32:57;;;;;;;3.63;2.58;;;17.40;99.90;;;;;;5057993;28;20021;-83
2023/09/06 04:35:33;;;;;;;4.22;2.50;;;17.30;99.90;;;;;;5057430;28;20036;-87
2023/09/06 04:38:02;;;;;;;5.45;2.70;;;17.30;99.90;;;;;;5056299;28;20036;-83
2023/09/06 04:40:29;;;;;;;4.35;2.45;;;17.20;99.90;;;;;;5056488;28;20049;-83
2023/09/06 04:42:54;;;;;;;4.22;2.80;;;17.20;99.90;;;;;;5057193;28;20021;-83
2023/09/06 04:45:20;;;;;;;3.88;2.67;;;17.20;99.90;;;;;;5056500;28;20493;-83
2023/09/06 04:47:46;;;;;;;5.07;3.03;;;17.20;99.90;;;;;;5055876;28;20784;-83
2023/09/06 04:50:11;;;;;;;5.22;2.60;;;17.20;99.90;;;;;;5085395;28;20070;-83
2023/09/06 04:52:45;;;;;;;5.80;2.75;;;17.20;99.90;;;;;;5079042;28;20461;-83
2023/09/06 04:55:13;;;;;;;6.25;2.60;;;17.30;99.90;;;;;;5079460;28;20476;-83
2023/09/06 04:57:40;;;;;;;5.78;2.88;;;17.30;99.90;;;;;;5078830;28;20052;-83
2023/09/06 05:03:10;;;;;;;6.50;2.65;;;17.40;99.90;;;;;;5062992;28;20032;-83
2023/09/06 05:05:37;;;;;;;5.80;2.72;;;17.40;99.90;;;;;;5079104;28;20028;-83
2023/09/06 05:08:03;;;;;;;5.57;2.90;;;17.40;99.90;;;;;;5079245;28;20040;-83
2023/09/06 05:10:29;;;;;;;5.80;2.72;;;17.40;99.90;;;;;;5096757;28;20028;-84
2023/09/06 05:12:54;;;;;;;5.40;2.55;;;17.40;99.90;;;;;;5096151;28;20120;-83
2023/09/06 05:15:20;;;;;;;4.10;2.50;;;17.40;99.90;;;;;;5095913;28;20456;-82
2023/09/06 05:17:46;;;;;;;4.07;2.65;;;17.40;99.90;;;;;;5096614;28;20103;-82
2023/09/06 05:20:33;;;;;;;4.07;2.60;;;17.40;99.90;;;;;;5095817;28;20020;-83
2023/09/06 05:23:01;;;;;;;4.63;2.80;;;17.40;99.90;;;;;;5096996;28;20114;-83
2023/09/06 05:25:27;;;;;;;4.63;2.55;;;17.40;99.90;;;;;;5079081;28;20079;-87
2023/09/06 05:28:04;;;;;;;4.88;2.72;;;17.50;99.90;;;;;;5095575;28;20476;-83
2023/09/06 05:30:31;;;;;;;4.40;2.45;;;17.40;99.90;;;;;;5095796;28;20028;-83
2023/09/06 05:32:58;;;;;;;6.50;2.40;;;17.40;99.90;;;;;;5095657;28;20028;-83
2023/09/06 05:35:24;;;;;;;6.93;2.80;;;17.40;99.90;;;;;;5078804;28;20036;-83
2023/09/06 05:37:49;;;;;;;4.85;3.10;;;17.50;99.90;;;;;;5095960;28;20032;-82
2023/09/06 05:40:16;;;;;;;5.22;2.83;;;17.40;99.90;;;;;;5096459;28;20158;-83
2023/09/06 05:42:41;;;;;;;7.90;3.22;;;17.30;99.90;;;;;;5095362;28;20024;-83
2023/09/06 05:45:11;;;;;;;5.35;3.10;;;17.30;99.90;;;;;;5095786;28;20031;-83
2023/09/06 05:47:38;;;;;;;4.97;2.90;;;17.30;99.90;;;;;;5078273;28;20024;-83
2023/09/06 05:50:04;;;;;;;4.03;2.88;;;17.30;99.90;;;;;;5078441;28;20075;-83
2023/09/06 05:52:30;;;;;;;5.30;2.65;;;17.30;99.90;;;;;;5077797;28;20069;-88
2023/09/06 05:54:55;;;;;;;3.88;2.67;;;17.30;99.90;;;;;;5095950;28;20040;-83
2023/09/06 05:57:22;;;;;;;5.68;3.00;;;17.30;99.90;;;;;;5096248;28;20024;-82
2023/09/06 05:59:47;;;;;;;5.72;2.65;;;17.30;99.90;;;;;;5094816;28;20153;-82
2023/09/06 06:02:14;;;;;;;5.88;2.97;;;17.40;99.90;;;;;;5078518;28;20065;-83
2023/09/06 06:04:41;;;;;;;7.15;3.10;;;17.40;99.90;;;;;;5095573;28;20028;-83
2023/09/06 06:07:06;;;;;;;5.53;2.85;;;17.50;99.90;;;;;;5078731;28;20049;-83
2023/09/06 06:09:33;;;;;;;5.00;2.72;;;17.50;99.90;;;;;;5095617;28;20031;-84
2023/09/06 06:11:58;;;;;;;6.40;2.90;;;17.60;99.90;;;;;;5095229;28;20077;-84
2023/09/06 06:14:28;;;;;;;5.28;2.70;;;17.50;99.90;;;;;;5094887;28;20127;-84
2023/09/06 06:16:53;;;;;;;5.25;2.60;;;17.60;99.90;;;;;;5094607;28;20119;-84
2023/09/06 06:19:19;;;;;;;5.32;2.83;;;17.60;99.90;;;;;;5095888;28;20104;-84
2023/09/06 06:21:45;;;;;;;3.85;2.60;;;17.70;99.90;;;;;;5094329;28;20050;-83
2023/09/06 06:24:12;;;;;;;6.68;3.33;;;17.70;99.90;;;;;;5094713;28;20036;-83
2023/09/06 06:26:38;;;;;;;5.15;2.58;;;17.80;99.90;;;;;;5077311;28;20119;-83
2023/09/06 06:29:04;;;;;;;6.70;2.70;;;17.80;99.90;;;;;;5094796;28;20039;-83
2023/09/06 06:31:29;;;;;;;3.38;2.25;;;17.90;99.90;;;;;;5094362;28;20030;-85
2023/09/06 06:33:55;;;;;;;6.53;2.75;;;17.90;99.90;;;;;;5094107;28;20039;-82
2023/09/06 06:36:21;;;;;;;4.45;2.75;;;18.00;99.90;;;;;;5094321;28;20034;-83
2023/09/06 06:38:47;;;;;;;5.07;2.70;;;18.00;99.90;;;;;;5094810;28;20032;-82
2023/09/06 06:41:19;;;;;;;7.28;3.45;;;18.00;99.90;;;;;;5093081;28;20067;-83
2023/09/06 06:43:44;;;;;;;;;;;18.10;99.90;;;;;;5077027;28;20119;-83
2023/09/06 06:46:23;;;;;;;4.57;2.70;;;18.10;99.90;;;;;;5076982;28;20004;-82
2023/09/06 06:48:49;;;;;;;8.10;2.67;;;18.10;99.90;;;;;;5094622;28;20020;-83
2023/09/06 06:51:14;;;;;;;20.40;3.53;;;18.20;99.90;;;;;;5095091;28;20441;-83
2023/09/06 06:53:40;;;;;;;9.35;3.10;;;18.20;99.90;;;;;;5093119;28;20043;-83
2023/09/06 06:56:06;;;;;;;9.88;3.55;;;18.20;99.90;;;;;;5094003;28;20093;-82
2023/09/06 06:58:32;;;;;;;13.25;3.85;;;18.30;99.90;;;;;;5093587;28;20024;-87
2023/09/06 07:00:57;;;;;;;10.15;3.25;;;18.30;99.90;;;;;;5093808;28;20351;-83
2023/09/06 07:03:24;;;;;;;8.80;3.28;;;18.30;99.90;;;;;;5076912;28;20055;-83
2023/09/06 07:05:49;;;;;;;7.22;3.03;;;18.40;99.90;;;;;;5093227;28;20050;-83
2023/09/06 07:08:15;;;;;;;7.57;3.10;;;18.40;99.90;;;;;;5093858;28;20536;-83
2023/09/06 07:10:40;;;;;;;5.70;2.88;;;18.40;99.90;;;;;;5073697;28;20474;-83
2023/09/06 07:13:06;;;;;;;5.78;2.65;;;18.50;99.90;;;;;;5073532;28;20028;-83
2023/09/06 07:15:31;;;;;;;6.70;2.83;;;18.40;99.90;;;;;;5073927;28;20042;-85
2023/09/06 07:17:57;;;;;;;4.70;2.80;;;18.50;99.90;;;;;;5072637;28;20031;-83
2023/09/06 07:20:23;;;;;;;6.45;2.78;;;18.50;99.90;;;;;;5073028;28;20032;-83
2023/09/06 07:22:48;;;;;;;7.00;2.55;;;18.50;99.90;;;;;;5072299;28;20028;-83
2023/09/06 07:25:14;;;;;;;4.15;2.60;;;18.60;99.90;;;;;;5074176;28;20029;-83
2023/09/06 07:27:39;;;;;;;5.43;3.15;;;18.70;99.90;;;;;;5073728;28;20400;-83
2023/09/06 07:30:06;;;;;;;5.78;2.80;;;18.70;99.90;;;;;;5073132;28;20056;-83
2023/09/06 07:32:32;;;;;;;9.48;3.22;;;18.70;99.90;;;;;;5056286;28;20024;-85
2023/09/06 07:34:57;;;;;;;7.07;2.80;;;18.80;99.90;;;;;;5061796;28;20041;-85
2023/09/06 07:37:23;;;;;;;4.00;2.67;;;18.80;99.90;;;;;;5084072;28;20032;-84
2023/09/06 07:39:49;;;;;;;9.82;2.78;;;18.80;99.90;;;;;;5083530;28;20031;-84
2023/09/06 07:42:14;;;;;;;5.32;2.83;;;18.80;99.90;;;;;;5084717;28;20028;-83
2023/09/06 07:44:40;;;;;;;5.55;3.00;;;18.90;99.90;;;;;;5065582;28;20715;-83
2023/09/06 07:47:06;;;;;;;9.82;2.97;;;19.00;99.90;;;;;;5080717;28;20060;-83
2023/09/06 07:49:31;;;;;;;7.05;3.13;;;19.00;99.90;;;;;;5083033;28;20105;-83
2023/09/06 07:51:57;;;;;;;5.45;2.85;;;19.00;99.90;;;;;;5084167;28;20029;-83
2023/09/06 07:54:23;;;;;;;8.07;2.85;;;19.10;99.90;;;;;;5065173;28;20037;-85
2023/09/06 07:56:49;;;;;;;4.18;2.90;;;19.10;99.90;;;;;;5081625;28;20069;-83
2023/09/06 07:59:20;;;;;;;4.88;2.45;;;19.10;99.90;;;;;;5079877;28;20028;-82
2023/09/06 08:01:45;;;;;;;4.63;2.63;;;19.10;99.90;;;;;;5063719;28;20020;-83
2023/09/06 08:04:11;;;;;;;6.70;2.78;;;19.20;99.90;;;;;;5084315;28;20025;-83
2023/09/06 08:06:37;;;;;;;3.35;2.47;;;19.20;99.90;;;;;;5080084;28;20074;-87
2023/09/06 08:09:02;;;;;;;5.88;2.90;;;19.30;99.90;;;;;;5065560;28;20040;-84
2023/09/06 08:11:28;;;;;;;6.10;3.08;;;19.30;99.90;;;;;;5065543;28;20029;-84
2023/09/06 08:13:54;;;;;;;6.47;2.50;;;19.40;99.90;;;;;;5063816;28;20528;-83
2023/09/06 08:16:19;;;;;;;4.63;2.63;;;19.40;99.90;;;;;;5079316;28;20138;-83
2023/09/06 08:18:46;;;;;;;5.55;2.70;;;19.40;99.90;;;;;;5062333;28;20493;-85
2023/09/06 08:21:12;;;;;;;5.60;2.63;;;19.50;99.90;;;;;;5066617;28;20024;-84
2023/09/06 08:23:37;;;;;;;5.95;2.90;;;19.50;99.90;;;;;;5061625;28;20089;-85
2023/09/06 08:26:03;;;;;;;5.05;2.75;;;19.60;99.90;;;;;;5071814;28;20028;-84
2023/09/06 08:28:30;;;;;;;5.13;2.92;;;19.60;99.90;;;;;;5086011;28;20066;-84
2023/09/06 08:30:56;;;;;;;4.18;2.70;;;19.70;99.90;;;;;;5087573;28;20100;-84
2023/09/06 08:33:22;;;;;;;6.43;2.65;;;19.70;99.90;;;;;;5081660;28;20024;-83
2023/09/06 08:35:47;;;;;;;5.40;2.63;;;19.80;99.90;;;;;;5079665;28;20450;-85
2023/09/06 08:38:13;;;;;;;4.63;2.83;;;19.80;99.90;;;;;;5083912;28;20054;-84
2023/09/06 08:40:38;;;;;;;5.10;2.72;;;19.90;99.90;;;;;;5082233;28;20029;-87
2023/09/06 08:43:04;;;;;;;6.90;2.50;;;19.90;99.90;;;;;;5085535;28;20043;-83
2023/09/06 08:45:31;;;;;;;4.38;2.55;;;19.90;99.90;;;;;;5082314;28;20062;-79
2023/09/06 08:47:57;;;;;;;4.10;2.70;;;19.90;99.90;;;;;;5080486;28;20020;-80
2023/09/06 08:50:23;;;;;;;5.05;3.30;;;20.00;99.90;;;;;;5046782;28;20045;-77
2023/09/06 08:52:51;;;;;;;10.07;2.58;;;20.10;99.90;;;;;;5041425;28;20071;-84
2023/09/06 08:55:17;;;;;;;5.65;2.95;;;20.20;99.90;;;;;;5044800;28;20034;-83
2023/09/06 08:57:44;;;;;;;4.95;2.90;;;20.20;99.80;;;;;;5041216;28;20056;-83
2023/09/06 09:00:11;;;;;;;8.65;3.20;;;20.20;99.80;;;;;;5040793;28;20026;-83
2023/09/06 09:02:42;;;;;;;4.85;2.67;;;20.30;99.90;;;;;;5044473;28;20033;-83
2023/09/06 09:05:10;;;;;;;5.88;2.90;;;20.40;99.90;;;;;;5043458;28;20029;-83
2023/09/06 09:07:36;;;;;;;8.05;3.08;;;20.40;99.80;;;;;;5044652;28;20029;-82
2023/09/06 09:10:09;;;;;;;4.32;2.50;;;20.40;99.90;;;;;;5045518;28;20025;-83
2023/09/06 09:12:36;;;;;;;6.72;3.13;;;20.50;99.90;;;;;;5046580;28;20525;-82
2023/09/06 09:15:03;;;;;;;8.48;2.90;;;20.50;99.80;;;;;;5046815;28;20025;-82
2023/09/06 09:17:29;;;;;;;5.80;2.80;;;20.50;99.70;;;;;;5045167;28;20021;-82
2023/09/06 09:19:57;;;;;;;4.32;2.75;;;20.60;99.50;;;;;;5046713;28;20057;-83
2023/09/06 09:22:27;;;;;;;6.38;3.30;;;20.60;99.40;;;;;;5048129;28;20166;-82
2023/09/06 09:25:04;;;;;;;7.70;2.85;;;20.70;99.60;;;;;;5054740;28;20033;-82
2023/09/06 09:27:36;;;;;;;5.88;3.15;;;20.70;99.60;;;;;;5056467;28;20032;-82
2023/09/06 09:30:04;;;;;;;9.60;3.03;;;20.70;99.60;;;;;;5054945;28;20033;-83
2023/09/06 09:32:30;;;;;;;20.55;3.85;;;20.70;99.60;;;;;;5056852;28;20021;-82
2023/09/06 09:34:56;;;;;;;8.68;2.80;;;20.80;99.30;;;;;;5055745;28;20120;-82
2023/09/06 09:37:22;;;;;;;29.30;4.10;;;20.90;99.70;;;;;;5055340;28;20061;-82
2023/09/06 09:39:48;;;;;;;15.45;3.72;;;20.90;99.40;;;;;;5054292;28;20033;-82
2023/09/06 09:42:14;;;;;;;23.48;5.30;;;20.90;99.10;;;;;;5055279;28;20036;-81
2023/09/06 09:44:41;;;;;;;34.53;5.38;;;21.00;99.10;;;;;;5056188;28;20466;-88
2023/09/06 09:47:12;;;;;;;22.08;4.43;;;21.00;99.00;;;;;;5056726;28;20088;-83
2023/09/06 09:49:40;;;;;;;16.73;3.45;;;21.00;98.70;;;;;;5055144;28;20084;-82
2023/09/06 09:52:14;;;;;;;11.25;3.03;;;21.20;98.40;;;;;;5056165;28;20033;-82
2023/09/06 09:54:47;;;;;;;11.85;3.60;;;21.20;98.30;;;;;;5054973;28;20037;-81
2023/09/06 09:57:13;;;;;;;7.32;3.08;;;21.30;98.60;;;;;;5055236;28;20060;-82
2023/09/06 09:59:40;;;;;;;26.90;5.43;;;21.30;98.20;;;;;;5054821;28;20029;-82
2023/09/06 10:02:08;;;;;;;8.98;3.88;;;21.40;98.30;;;;;;5054552;28;20025;-81
2023/09/06 10:04:38;;;;;;;19.15;4.60;;;21.40;98.10;;;;;;5054780;28;20036;-81
2023/09/06 10:07:08;;;;;;;15.18;3.50;;;21.40;98.00;;;;;;5054380;28;20029;-83
2023/09/06 10:09:37;;;;;;;8.65;3.47;;;21.40;97.80;;;;;;5054767;28;20033;-82
2023/09/06 10:12:05;;;;;;;6.68;3.17;;;21.40;98.30;;;;;;5055224;28;20055;-79
2023/09/06 10:14:32;;;;;;;3.28;2.42;;;21.50;98.30;;;;;;5054465;28;20033;-82
2023/09/06 10:16:58;;;;;;;5.20;2.67;;;21.60;97.60;;;;;;5055555;28;20116;-82
2023/09/06 10:19:24;;;;;;;4.93;2.60;;;21.70;97.60;;;;;;5054713;28;20143;-83
2023/09/06 10:21:51;;;;;;;4.18;2.60;;;21.70;97.40;;;;;;5053914;28;20470;-83
2023/09/06 10:24:18;;;;;;;5.13;2.70;;;21.80;97.50;;;;;;5054279;28;20475;-83
2023/09/06 10:26:46;;;;;;;10.07;3.03;;;21.80;98.20;;;;;;5054030;28;20115;-84
2023/09/06 10:29:23;;;;;;;5.10;3.00;;;21.90;97.90;;;;;;5054479;28;20036;-83
2023/09/06 10:31:51;;;;;;;3.40;2.70;;;21.90;97.70;;;;;;5055248;28;20373;-83
2023/09/06 10:34:20;;;;;;;3.65;2.40;;;22.00;98.30;;;;;;5037628;28;20363;-82
2023/09/06 10:36:57;;;;;;;3.55;2.63;;;22.10;97.10;;;;;;5053441;28;20041;-84
2023/09/06 10:39:25;;;;;;;3.47;2.53;;;22.10;97.10;;;;;;5055068;28;20082;-82
2023/09/06 10:42:11;;;;;;;4.75;3.00;;;22.30;97.10;;;;;;5053917;28;20582;-82
2023/09/06 10:44:55;;;;;;;3.90;2.50;;;22.30;96.70;;;;;;5041134;28;20037;-82
2023/09/06 10:47:33;;;;;;;4.55;2.80;;;22.40;96.70;;;;;;5053974;28;20025;-82
2023/09/06 10:50:19;;;;;;;4.18;2.40;;;22.40;97.20;;;;;;5053475;28;20103;-84
2023/09/06 10:52:51;;;;;;;4.93;2.80;;;22.40;96.40;;;;;;5053557;28;20029;-89
2023/09/06 10:55:26;;;;;;;3.30;2.58;;;22.50;96.40;;;;;;5053925;28;20040;-83
2023/09/06 10:57:54;;;;;;;4.35;2.60;;;22.40;96.40;;;;;;5053226;28;20036;-84
2023/09/06 11:00:30;;;;;;;4.88;2.65;;;22.40;96.50;;;;;;5053732;28;20032;-83
2023/09/06 11:03:08;;;;;;;3.83;2.60;;;22.40;97.10;;;;;;5052638;28;20074;-83
2023/09/06 11:05:39;;;;;;;4.05;2.60;;;22.60;96.30;;;;;;5053760;28;20029;-83
2023/09/06 11:08:06;;;;;;;4.95;2.85;;;22.60;96.10;;;;;;5053625;28;20037;-83
2023/09/06 11:10:32;;;;;;;6.57;2.92;;;22.70;96.20;;;;;;5054077;28;20037;-83
2023/09/06 11:13:10;;;;;;;4.88;2.55;;;22.80;96.40;;;;;;5052830;28;20033;-84
2023/09/06 11:15:36;;;;;;;4.40;2.42;;;22.90;96.10;;;;;;5054722;28;20071;-84
2023/09/06 11:18:03;;;;;;;4.88;2.65;;;23.00;96.40;;;;;;5053124;28;20022;-84
2023/09/06 11:20:30;;;;;;;7.00;3.08;;;23.10;96.90;;;;;;5053833;28;20124;-84
2023/09/06 11:23:00;;;;;;;4.30;2.70;;;23.20;96.30;;;;;;5053045;28;20025;-80
2023/09/06 11:25:28;;;;;;;4.60;2.78;;;23.30;95.30;;;;;;5054644;28;20033;-79
2023/09/06 11:27:56;;;;;;;5.45;3.47;;;23.30;95.40;;;;;;5051916;28;20028;-78
2023/09/06 11:30:23;;;;;;;6.80;2.72;;;23.40;95.90;;;;;;5053672;28;20462;-78
2023/09/06 11:32:53;;;;;;;4.35;2.88;;;23.50;96.10;;;;;;5044018;28;20033;-84
2023/09/06 11:35:22;;;;;;;5.13;2.78;;;23.60;96.20;;;;;;5053713;28;20060;-80
2023/09/06 11:37:50;;;;;;;3.97;2.53;;;23.60;95.60;;;;;;5054477;28;20021;-82
2023/09/06 11:40:20;;;;;;;10.57;4.03;;;23.70;95.30;;;;;;5053860;28;20021;-78
2023/09/06 11:42:53;;;;;;;18.35;3.67;;;23.70;95.60;;;;;;5052936;28;20035;-78
2023/09/06 11:45:20;;;;;;;5.13;2.60;;;23.90;96.00;;;;;;5052386;28;20037;-85
2023/09/06 11:47:46;;;;;;;4.18;2.55;;;24.00;95.50;;;;;;5051649;28;20032;-81
2023/09/06 11:50:19;;;;;;;6.85;2.70;;;24.10;95.10;;;;;;5064470;28;20044;-84
2023/09/06 11:52:49;;;;;;;4.93;2.95;;;24.10;95.40;;;;;;5072100;28;20029;-83
2023/09/06 11:55:16;;;;;;;6.28;3.17;;;24.10;95.00;;;;;;5072035;28;20036;-83
2023/09/06 11:57:50;;;;;;;7.03;2.80;;;24.10;95.20;;;;;;5072193;28;20473;-81
2023/09/06 12:00:27;;;;;;;4.65;2.58;;;24.10;95.00;;;;;;5072172;28;20024;-80
2023/09/06 12:03:17;;;;;;;7.93;2.78;;;24.20;95.00;;;;;;5065824;28;20036;-85
2023/09/06 12:05:46;;;;;;;9.88;3.42;;;24.40;94.00;;;;;;5054984;28;20067;-83
2023/09/06 12:08:19;;;;;;;12.63;3.55;;;24.50;94.60;;;;;;5063476;28;20038;-84
2023/09/06 12:10:54;;;;;;;6.65;2.58;;;24.70;94.40;;;;;;5055592;28;20028;-82
2023/09/06 12:13:40;;;;;;;4.35;2.83;;;24.80;94.50;;;;;;5063864;28;20044;-81
2023/09/06 12:16:10;;;;;;;4.38;2.92;;;24.90;93.70;;;;;;5061016;28;20045;-83
2023/09/06 12:18:37;;;;;;;4.32;2.58;;;25.00;93.50;;;;;;5060057;28;20024;-81
2023/09/06 12:21:04;;;;;;;7.93;2.97;;;25.10;94.30;;;;;;5053884;28;20071;-82
2023/09/06 12:23:30;;;;;;;4.93;2.83;;;25.10;93.70;;;;;;5054090;28;20029;-83
2023/09/06 12:25:57;;;;;;;6.43;2.63;;;25.20;93.80;;;;;;5053760;28;20059;-82
2023/09/06 12:28:23;;;;;;;4.68;2.30;;;25.30;92.60;;;;;;5057045;28;20035;-82
2023/09/06 12:30:54;;;;;;;12.48;3.13;;;25.40;93.10;;;;;;5063574;28;20412;-86
2023/09/06 12:33:22;;;;;;;7.88;3.08;;;25.50;92.40;;;;;;5061315;28;20029;-82
2023/09/06 12:36:00;;;;;;;6.88;2.67;;;25.60;92.00;;;;;;5073372;28;20041;-82
2023/09/06 12:38:27;;;;;;;5.63;3.10;;;25.70;91.80;;;;;;5054648;28;20026;-84
2023/09/06 12:40:53;;;;;;;4.68;2.70;;;25.80;91.90;;;;;;5065915;28;20046;-84
2023/09/06 12:43:20;;;;;;;7.85;2.67;;;25.90;92.10;;;;;;5074247;28;20119;-83
2023/09/06 12:45:47;;;;;;;3.33;2.47;;;26.00;91.60;;;;;;5075671;28;20137;-82
2023/09/06 12:48:13;;;;;;;5.32;2.67;;;26.20;91.30;;;;;;5075726;28;20033;-83
2023/09/06 12:50:39;;;;;;;4.50;2.65;;;26.30;90.70;;;;;;5058192;28;20054;-81
2023/09/06 12:53:10;;;;;;;4.80;2.53;;;26.50;90.30;;;;;;5052237;28;20029;-79